Terminal Aerodrome Forecast
Issued by NWS

Home | Current Version | Previous Version | Text Only | Print | Product List | Glossary On
Versions: 1 2 3 4 5 6 7 8 9 10 11 12 13 14 15 16 17 18 19 20 21 22 23 24 25 26 27 28 29 30 31 32 33 34 35 36 37
000
FTUS41 KBOX 180531
TAFBED
TAF
KBED 180531Z 1806/1906 28009KT P6SM BKN050
     FM180900 28010G19KT P6SM BKN040
     FM181200 28010G20KT P6SM BKN040
     FM181900 30012G24KT P6SM BKN030
     FM190000 29008KT P6SM BKN035
     FM190200 29007KT P6SM SCT025=

USA.gov is the U.S. government's official web portal to all federal, state and local government web resources and services.